createdAt,value
2023-03-19T00:00:13.188Z,8.31
2023-03-19T00:01:13.181Z,8.31
2023-03-19T00:02:17.989Z,8.30
2023-03-19T00:03:13.194Z,8.27
2023-03-19T00:04:13.138Z,8.26
2023-03-19T00:05:13.137Z,8.24
2023-03-19T00:06:13.125Z,8.27
2023-03-19T00:07:13.108Z,8.26
2023-03-19T00:08:13.103Z,8.26
2023-03-19T00:09:13.084Z,8.30
2023-03-19T00:10:13.103Z,8.31
2023-03-19T00:11:13.047Z,8.33
2023-03-19T00:12:13.048Z,8.30
2023-03-19T00:13:13.034Z,8.30
2023-03-19T00:14:13.011Z,8.27
2023-03-19T00:15:13.006Z,8.27
2023-03-19T00:16:13.021Z,8.31
2023-03-19T00:17:12.975Z,8.31
2023-03-19T00:18:12.971Z,8.31
2023-03-19T00:19:12.961Z,8.36
2023-03-19T00:20:12.949Z,8.37
2023-03-19T00:21:12.920Z,8.36
2023-03-19T00:22:12.908Z,8.36
2023-03-19T00:23:12.902Z,8.34
2023-03-19T00:24:12.889Z,8.37
2023-03-19T00:25:12.870Z,8.41
2023-03-19T00:26:13.060Z,8.41
2023-03-19T00:27:12.843Z,8.41
2023-03-19T00:28:12.840Z,8.37
2023-03-19T00:29:12.870Z,8.36
2023-03-19T00:30:12.807Z,8.36
2023-03-19T00:31:12.948Z,8.38
2023-03-19T00:32:12.779Z,8.38
2023-03-19T00:33:12.915Z,8.41
2023-03-19T00:34:12.752Z,8.37
2023-03-19T00:35:12.736Z,8.37
2023-03-19T00:36:12.796Z,8.34
2023-03-19T00:37:12.717Z,8.37
2023-03-19T00:38:12.700Z,8.38
2023-03-19T00:39:12.694Z,8.33
2023-03-19T00:40:12.692Z,8.28
2023-03-19T00:41:12.668Z,8.20
2023-03-19T00:42:12.677Z,8.16
2023-03-19T00:43:12.651Z,8.15
2023-03-19T00:44:12.622Z,8.12
2023-03-19T00:45:12.616Z,8.15
2023-03-19T00:46:12.684Z,8.15
2023-03-19T00:47:12.584Z,8.15
2023-03-19T00:48:12.588Z,8.16
2023-03-19T00:49:12.564Z,8.18
2023-03-19T00:50:12.551Z,8.18
2023-03-19T00:51:12.537Z,8.20
2023-03-19T00:52:12.520Z,8.19
2023-03-19T00:53:12.522Z,8.24
2023-03-19T00:54:12.501Z,8.20
2023-03-19T00:55:12.509Z,8.23
2023-03-19T00:56:12.475Z,8.20
2023-03-19T00:57:12.457Z,8.24
2023-03-19T00:58:12.487Z,8.23
2023-03-19T00:59:12.438Z,8.20
2023-03-19T01:00:12.421Z,8.24
2023-03-19T01:01:12.496Z,8.24
2023-03-19T01:02:12.396Z,8.24
2023-03-19T01:03:12.374Z,8.23
2023-03-19T01:04:12.386Z,8.23
2023-03-19T01:05:12.356Z,8.23
2023-03-19T01:06:12.335Z,8.23
2023-03-19T01:07:12.328Z,8.19
2023-03-19T01:08:12.321Z,8.20
2023-03-19T01:09:12.302Z,8.24
2023-03-19T01:10:12.302Z,8.23
2023-03-19T01:11:12.348Z,8.23
2023-03-19T01:12:12.256Z,8.20
2023-03-19T01:13:12.264Z,8.23
2023-03-19T01:14:12.252Z,8.23
2023-03-19T01:15:12.215Z,8.19
2023-03-19T01:16:12.221Z,8.18
2023-03-19T01:17:12.201Z,8.18
2023-03-19T01:18:12.199Z,8.18
2023-03-19T01:19:12.167Z,8.16
2023-03-19T01:20:12.172Z,8.18
2023-03-19T01:21:12.140Z,8.20
2023-03-19T01:22:12.133Z,8.20
2023-03-19T01:23:12.154Z,8.20
2023-03-19T01:24:12.144Z,8.24
2023-03-19T01:25:12.097Z,8.26
2023-03-19T01:26:12.079Z,8.23
2023-03-19T01:27:12.062Z,8.24
2023-03-19T01:28:12.075Z,8.24
2023-03-19T01:29:12.052Z,8.24
2023-03-19T01:30:12.058Z,8.24
2023-03-19T01:31:12.096Z,8.24
2023-03-19T01:32:12.002Z,8.24
2023-03-19T01:33:12.096Z,8.24
2023-03-19T01:34:11.986Z,8.23
2023-03-19T01:35:11.963Z,8.23
2023-03-19T01:36:11.949Z,8.26
2023-03-19T01:37:11.950Z,8.23
2023-03-19T01:38:11.918Z,8.24
2023-03-19T01:39:11.910Z,8.20
2023-03-19T01:40:11.902Z,8.23
2023-03-19T01:41:11.878Z,8.23
2023-03-19T01:42:11.872Z,8.20
2023-03-19T01:43:11.852Z,8.23
2023-03-19T01:44:11.855Z,8.23
2023-03-19T01:45:11.836Z,8.19
2023-03-19T01:46:11.882Z,8.18
2023-03-19T01:47:11.809Z,8.19
2023-03-19T01:48:11.809Z,8.20
2023-03-19T01:49:11.793Z,8.24
2023-03-19T01:50:11.780Z,8.26
2023-03-19T01:51:11.767Z,8.27
2023-03-19T01:52:11.739Z,8.23
2023-03-19T01:53:12.680Z,8.20
2023-03-19T01:54:11.730Z,8.19
2023-03-19T01:55:11.719Z,8.18
2023-03-19T01:56:11.701Z,8.15
2023-03-19T01:57:11.684Z,8.12
2023-03-19T01:58:11.681Z,8.12
2023-03-19T01:59:11.654Z,8.15
2023-03-19T02:00:11.632Z,8.13
2023-03-19T02:01:11.683Z,8.12
2023-03-19T02:02:11.778Z,8.12
2023-03-19T02:03:11.605Z,8.09
2023-03-19T02:04:11.666Z,8.12
2023-03-19T02:05:11.577Z,8.12
2023-03-19T02:06:11.552Z,8.12
2023-03-19T02:07:11.550Z,8.13
2023-03-19T02:08:11.550Z,8.10
2023-03-19T02:09:11.525Z,8.09
2023-03-19T02:10:11.514Z,8.12
2023-03-19T02:11:11.491Z,8.09
2023-03-19T02:12:11.478Z,8.09
2023-03-19T02:13:11.536Z,8.06
2023-03-19T02:14:11.457Z,8.06
2023-03-19T02:15:11.451Z,8.10
2023-03-19T02:16:11.513Z,8.12
2023-03-19T02:17:11.430Z,8.16
2023-03-19T02:18:11.432Z,8.15
2023-03-19T02:19:11.391Z,8.15
2023-03-19T02:20:11.375Z,8.15
2023-03-19T02:21:11.375Z,8.15
2023-03-19T02:22:11.353Z,8.16
2023-03-19T02:23:11.343Z,8.16
2023-03-19T02:24:11.317Z,8.19
2023-03-19T02:25:11.306Z,8.18
2023-03-19T02:26:11.309Z,8.16
2023-03-19T02:27:11.293Z,8.19
2023-03-19T02:28:11.283Z,8.19
2023-03-19T02:29:11.266Z,8.18
2023-03-19T02:30:11.243Z,8.16
2023-03-19T02:31:11.295Z,8.13
2023-03-19T02:32:11.238Z,8.15
2023-03-19T02:33:11.252Z,8.15
2023-03-19T02:34:11.223Z,8.10
2023-03-19T02:35:11.175Z,8.10
2023-03-19T02:36:11.219Z,8.09
2023-03-19T02:37:11.153Z,8.09
2023-03-19T02:38:11.141Z,8.12
2023-03-19T02:39:11.130Z,8.13
2023-03-19T02:40:11.131Z,8.12
2023-03-19T02:41:11.108Z,8.09
2023-03-19T02:42:11.096Z,8.12
2023-03-19T02:43:11.081Z,8.12
2023-03-19T02:44:11.075Z,8.13
2023-03-19T02:45:11.058Z,8.13
2023-03-19T02:46:11.100Z,8.13
2023-03-19T02:47:11.026Z,8.13
2023-03-19T02:48:11.018Z,8.12
2023-03-19T02:49:10.995Z,8.13
2023-03-19T02:50:11.013Z,8.13
2023-03-19T02:51:10.977Z,8.13
2023-03-19T02:52:10.968Z,8.10
2023-03-19T02:53:10.953Z,8.12
2023-03-19T02:54:10.929Z,8.08
2023-03-19T02:55:10.921Z,8.03
2023-03-19T02:56:10.915Z,8.00
2023-03-19T02:57:10.899Z,7.97
2023-03-19T02:58:10.879Z,7.94
2023-03-19T02:59:10.878Z,7.95
2023-03-19T03:00:10.937Z,7.94
2023-03-19T03:01:10.959Z,7.94
2023-03-19T03:02:10.907Z,7.95
2023-03-19T03:03:10.821Z,7.95
2023-03-19T03:04:10.820Z,7.98
2023-03-19T03:05:10.805Z,7.97
2023-03-19T03:06:10.817Z,7.94
2023-03-19T03:07:10.776Z,7.93
2023-03-19T03:08:10.778Z,7.94
2023-03-19T03:09:10.752Z,7.94
2023-03-19T03:10:10.740Z,7.91
2023-03-19T03:11:10.726Z,7.94
2023-03-19T03:12:10.707Z,7.94
2023-03-19T03:13:10.703Z,7.91
2023-03-19T03:14:10.692Z,7.93
2023-03-19T03:15:10.679Z,7.91
2023-03-19T03:16:10.691Z,7.91
2023-03-19T03:17:10.657Z,7.90
2023-03-19T03:18:10.629Z,7.91
2023-03-19T03:19:10.624Z,7.93
2023-03-19T03:20:10.612Z,7.91
2023-03-19T03:21:10.596Z,7.93
2023-03-19T03:22:10.601Z,7.93
2023-03-19T03:23:10.566Z,7.94
2023-03-19T03:24:10.563Z,7.95
2023-03-19T03:25:10.557Z,7.94
2023-03-19T03:26:10.536Z,7.91
2023-03-19T03:27:10.523Z,7.90
2023-03-19T03:28:10.510Z,7.88
2023-03-19T03:29:10.488Z,7.83
2023-03-19T03:30:10.484Z,7.82
2023-03-19T03:31:10.588Z,7.79
2023-03-19T03:32:10.452Z,7.77
2023-03-19T03:33:10.547Z,7.76
2023-03-19T03:34:10.433Z,7.76
2023-03-19T03:35:10.418Z,7.79
2023-03-19T03:36:10.407Z,7.77
2023-03-19T03:37:10.395Z,7.73
2023-03-19T03:38:10.407Z,7.75
2023-03-19T03:39:10.376Z,7.70
2023-03-19T03:40:10.373Z,7.73
2023-03-19T03:41:10.359Z,7.73
2023-03-19T03:42:10.341Z,7.75
2023-03-19T03:43:10.313Z,7.73
2023-03-19T03:44:10.312Z,7.75
2023-03-19T03:45:10.295Z,7.72
2023-03-19T03:46:10.337Z,7.73
2023-03-19T03:47:10.273Z,7.75
2023-03-19T03:48:10.255Z,7.73
2023-03-19T03:49:10.255Z,7.72
2023-03-19T03:50:10.229Z,7.72
2023-03-19T03:51:10.223Z,7.72
2023-03-19T03:52:10.204Z,7.75
2023-03-19T03:53:10.221Z,7.76
2023-03-19T03:54:10.213Z,7.76
2023-03-19T03:55:10.181Z,7.72
2023-03-19T03:56:10.154Z,7.69
2023-03-19T03:57:10.151Z,7.67
2023-03-19T03:58:10.132Z,7.67
2023-03-19T03:59:10.112Z,7.67
2023-03-19T04:00:10.094Z,7.67
2023-03-19T04:01:10.097Z,7.69
2023-03-19T04:02:10.107Z,7.72
2023-03-19T04:03:10.128Z,7.73
2023-03-19T04:04:10.055Z,7.72
2023-03-19T04:05:10.042Z,7.72
2023-03-19T04:06:10.024Z,7.69
2023-03-19T04:07:10.013Z,7.67
2023-03-19T04:08:09.992Z,7.63
2023-03-19T04:09:09.988Z,7.58
2023-03-19T04:10:09.997Z,7.58
2023-03-19T04:11:09.966Z,7.57
2023-03-19T04:12:09.940Z,7.56
2023-03-19T04:13:09.934Z,7.56
2023-03-19T04:14:09.937Z,7.53
2023-03-19T04:15:09.901Z,7.53
2023-03-19T04:16:09.978Z,7.54
2023-03-19T04:17:09.884Z,7.54
2023-03-19T04:18:09.862Z,7.56
2023-03-19T04:19:09.849Z,7.56
2023-03-19T04:20:09.853Z,7.54
2023-03-19T04:21:09.829Z,7.56
2023-03-19T04:22:09.825Z,7.57
2023-03-19T04:23:09.801Z,7.58
2023-03-19T04:24:09.787Z,7.58
2023-03-19T04:25:09.778Z,7.57
2023-03-19T04:26:09.781Z,7.58
2023-03-19T04:27:09.755Z,7.58
2023-03-19T04:28:09.731Z,7.60
2023-03-19T04:29:09.731Z,7.60
2023-03-19T04:30:09.719Z,7.60
2023-03-19T04:31:09.762Z,7.57
2023-03-19T04:32:09.685Z,7.58
2023-03-19T04:33:09.743Z,7.58
2023-03-19T04:34:09.656Z,7.60
2023-03-19T04:35:09.641Z,7.57
2023-03-19T04:36:09.636Z,7.56
2023-03-19T04:37:09.628Z,7.57
2023-03-19T04:38:09.604Z,7.56
2023-03-19T04:39:09.592Z,7.54
2023-03-19T04:40:09.597Z,7.53
2023-03-19T04:41:09.571Z,7.53
2023-03-19T04:42:09.575Z,7.51
2023-03-19T04:43:09.547Z,7.50
2023-03-19T04:44:09.527Z,7.47
2023-03-19T04:45:09.520Z,7.45
2023-03-19T04:46:09.577Z,7.42
2023-03-19T04:47:09.488Z,7.40
2023-03-19T04:48:09.474Z,7.39
2023-03-19T04:49:09.469Z,7.42
2023-03-19T04:50:09.476Z,7.42
2023-03-19T04:51:09.449Z,7.47
2023-03-19T04:52:09.440Z,7.50
2023-03-19T04:53:09.418Z,7.51
2023-03-19T04:54:09.397Z,7.51
2023-03-19T04:55:09.390Z,7.53
2023-03-19T04:56:09.384Z,7.50
2023-03-19T04:57:09.362Z,7.48
2023-03-19T04:58:09.388Z,7.45
2023-03-19T04:59:09.341Z,7.40
2023-03-19T05:00:09.319Z,7.40
2023-03-19T05:01:09.336Z,7.39
2023-03-19T05:02:09.304Z,7.39
2023-03-19T05:03:09.282Z,7.40
2023-03-19T05:04:09.313Z,7.39
2023-03-19T05:05:09.260Z,7.39
2023-03-19T05:06:09.251Z,7.39
2023-03-19T05:07:09.235Z,7.39
2023-03-19T05:08:09.217Z,7.39
2023-03-19T05:09:09.213Z,7.39
2023-03-19T05:10:09.190Z,7.36
2023-03-19T05:11:09.174Z,7.35
2023-03-19T05:12:09.173Z,7.32
2023-03-19T05:13:09.151Z,7.35
2023-03-19T05:14:09.162Z,7.36
2023-03-19T05:15:09.125Z,7.36
2023-03-19T05:16:09.179Z,7.36
2023-03-19T05:17:09.099Z,7.35
2023-03-19T05:18:09.094Z,7.33
2023-03-19T05:19:09.071Z,7.35
2023-03-19T05:20:09.066Z,7.33
2023-03-19T05:21:09.058Z,7.35
2023-03-19T05:22:09.036Z,7.33
2023-03-19T05:23:09.023Z,7.33
2023-03-19T05:24:09.010Z,7.31
2023-03-19T05:25:09.007Z,7.28
2023-03-19T05:26:08.991Z,7.25
2023-03-19T05:27:08.981Z,7.25
2023-03-19T05:28:08.982Z,7.28
2023-03-19T05:29:08.954Z,7.24
2023-03-19T05:30:08.963Z,7.25
2023-03-19T05:31:08.989Z,7.28
2023-03-19T05:32:08.914Z,7.28
2023-03-19T05:33:08.960Z,7.29
2023-03-19T05:34:08.886Z,7.31
2023-03-19T05:35:08.866Z,7.31
2023-03-19T05:36:08.863Z,7.32
2023-03-19T05:37:08.844Z,7.33
2023-03-19T05:38:08.836Z,7.33
2023-03-19T05:39:08.818Z,7.35
2023-03-19T05:40:08.823Z,7.36
2023-03-19T05:41:08.803Z,7.36
2023-03-19T05:42:08.780Z,7.38
2023-03-19T05:43:08.763Z,7.38
2023-03-19T05:44:08.758Z,7.36
2023-03-19T05:45:08.747Z,7.38
2023-03-19T05:46:08.820Z,7.35
2023-03-19T05:47:08.724Z,7.25
2023-03-19T05:48:08.698Z,7.18
2023-03-19T05:49:08.687Z,7.14
2023-03-19T05:50:08.685Z,7.11
2023-03-19T05:51:08.664Z,7.11
2023-03-19T05:52:08.652Z,7.11
2023-03-19T05:53:08.641Z,7.10
2023-03-19T05:54:08.624Z,7.10
2023-03-19T05:55:08.616Z,7.07
2023-03-19T05:56:08.605Z,7.10
2023-03-19T05:57:08.579Z,7.11
2023-03-19T05:58:08.570Z,7.13
2023-03-19T05:59:08.556Z,7.17
2023-03-19T06:00:08.541Z,7.17
2023-03-19T06:01:08.551Z,7.18
2023-03-19T06:02:08.555Z,7.21
2023-03-19T06:03:08.640Z,7.21
2023-03-19T06:04:08.601Z,7.23
2023-03-19T06:05:08.509Z,7.21
2023-03-19T06:06:08.469Z,7.21
2023-03-19T06:07:08.449Z,7.23
2023-03-19T06:08:08.440Z,7.23
2023-03-19T06:09:08.435Z,7.29
2023-03-19T06:10:08.423Z,7.31
2023-03-19T06:11:08.401Z,7.32
2023-03-19T06:12:08.403Z,7.38
2023-03-19T06:13:08.387Z,7.39
2023-03-19T06:14:08.368Z,7.40
2023-03-19T06:15:08.358Z,7.40
2023-03-19T06:16:08.374Z,7.40
2023-03-19T06:17:08.344Z,7.42
2023-03-19T06:18:08.343Z,7.40
2023-03-19T06:19:08.303Z,7.40
2023-03-19T06:20:08.293Z,7.45
2023-03-19T06:21:08.276Z,7.48
2023-03-19T06:22:08.267Z,7.50
2023-03-19T06:23:08.251Z,7.50
2023-03-19T06:24:08.250Z,7.50
2023-03-19T06:25:08.223Z,7.47
2023-03-19T06:26:08.222Z,7.45
2023-03-19T06:27:08.202Z,7.47
2023-03-19T06:28:08.183Z,7.43
2023-03-19T06:29:08.174Z,7.42
2023-03-19T06:30:08.168Z,7.43
2023-03-19T06:31:08.256Z,7.42
2023-03-19T06:32:08.141Z,7.40
2023-03-19T06:33:08.241Z,7.43
2023-03-19T06:34:08.143Z,7.45
2023-03-19T06:35:08.098Z,7.43
2023-03-19T06:36:08.091Z,7.45
2023-03-19T06:37:08.081Z,7.45
2023-03-19T06:38:08.076Z,7.43
2023-03-19T06:39:08.064Z,7.45
2023-03-19T06:40:08.064Z,7.47
2023-03-19T06:41:08.046Z,7.50
2023-03-19T06:42:08.041Z,7.53
2023-03-19T06:43:08.008Z,7.54
2023-03-19T06:44:08.010Z,7.57
2023-03-19T06:45:07.974Z,7.60
2023-03-19T06:46:10.224Z,7.61
2023-03-19T06:47:07.963Z,7.66
2023-03-19T06:48:07.954Z,7.69
2023-03-19T06:49:07.923Z,7.72
2023-03-19T06:50:07.940Z,7.79
2023-03-19T06:51:07.898Z,7.82
2023-03-19T06:52:07.898Z,7.85
2023-03-19T06:53:07.890Z,7.90
2023-03-19T06:54:07.868Z,7.97
2023-03-19T06:55:07.852Z,8.01
2023-03-19T06:56:07.847Z,8.10
2023-03-19T06:57:07.833Z,8.20
2023-03-19T06:58:07.815Z,8.27
2023-03-19T06:59:07.794Z,8.34
2023-03-19T07:00:07.783Z,8.42
2023-03-19T07:01:07.806Z,8.45
2023-03-19T07:02:09.931Z,8.48
2023-03-19T07:03:07.755Z,8.55
2023-03-19T07:04:07.761Z,8.56
2023-03-19T07:05:07.721Z,8.61
2023-03-19T07:06:07.778Z,8.64
2023-03-19T07:07:07.705Z,8.69
2023-03-19T07:08:07.690Z,8.71
2023-03-19T07:09:07.675Z,8.73
2023-03-19T07:10:07.657Z,8.71
2023-03-19T07:11:07.650Z,8.71
2023-03-19T07:12:07.633Z,8.70
2023-03-19T07:13:07.623Z,8.70
2023-03-19T07:14:07.619Z,8.71
2023-03-19T07:15:07.600Z,8.73
2023-03-19T07:16:07.619Z,8.71
2023-03-19T07:17:10.257Z,8.73
2023-03-19T07:18:07.564Z,8.74
2023-03-19T07:19:07.554Z,8.76
2023-03-19T07:20:07.548Z,8.78
2023-03-19T07:21:07.526Z,8.81
2023-03-19T07:22:07.534Z,8.78
2023-03-19T07:23:07.496Z,8.81
2023-03-19T07:24:07.498Z,8.84
2023-03-19T07:25:07.476Z,8.87
2023-03-19T07:26:07.463Z,8.92
2023-03-19T07:27:07.453Z,8.95
2023-03-19T07:28:07.437Z,9.03
2023-03-19T07:29:07.413Z,9.11
2023-03-19T07:30:07.410Z,9.21
2023-03-19T07:31:07.396Z,9.29
2023-03-19T07:32:07.377Z,9.32
2023-03-19T07:33:07.517Z,9.34
2023-03-19T07:34:07.351Z,9.32
2023-03-19T07:35:07.338Z,9.31
2023-03-19T07:36:07.377Z,9.32
2023-03-19T07:37:07.318Z,9.34
2023-03-19T07:38:07.341Z,9.34
2023-03-19T07:39:07.291Z,9.23
2023-03-19T07:40:07.279Z,9.26
2023-03-19T07:41:07.267Z,9.28
2023-03-19T07:42:07.244Z,9.29
2023-03-19T07:43:07.238Z,9.36
2023-03-19T07:44:07.242Z,9.32
2023-03-19T07:45:07.208Z,9.34
2023-03-19T07:46:07.236Z,9.36
2023-03-19T07:47:16.081Z,9.37
2023-03-19T07:48:08.217Z,9.39
2023-03-19T07:49:07.156Z,9.40
2023-03-19T07:50:07.151Z,9.44
2023-03-19T07:51:07.134Z,9.46
2023-03-19T07:52:07.129Z,9.47
2023-03-19T07:53:07.108Z,9.50
2023-03-19T07:54:07.122Z,9.56
2023-03-19T07:55:07.078Z,9.56
2023-03-19T07:56:07.175Z,9.55
2023-03-19T07:57:07.099Z,9.55
2023-03-19T07:58:07.037Z,9.58
2023-03-19T07:59:07.035Z,9.59
2023-03-19T08:00:07.018Z,9.62
2023-03-19T08:01:06.998Z,9.61
2023-03-19T08:02:07.080Z,9.61
2023-03-19T08:03:06.978Z,9.68
2023-03-19T08:04:07.035Z,9.76
2023-03-19T08:05:06.965Z,9.83
2023-03-19T08:06:06.942Z,9.87
2023-03-19T08:07:06.986Z,9.87
2023-03-19T08:08:06.926Z,9.83
2023-03-19T08:09:06.903Z,9.80
2023-03-19T08:10:06.906Z,9.83
2023-03-19T08:11:06.881Z,9.80
2023-03-19T08:12:06.866Z,9.80
2023-03-19T08:13:06.913Z,9.73
2023-03-19T08:14:06.850Z,9.68
2023-03-19T08:15:06.818Z,9.69
2023-03-19T08:16:06.837Z,9.68
2023-03-19T08:17:06.883Z,9.65
2023-03-19T08:18:06.800Z,9.64
2023-03-19T08:19:06.775Z,9.66
2023-03-19T08:20:06.757Z,9.68
2023-03-19T08:21:06.800Z,9.72
2023-03-19T08:22:06.738Z,9.74
2023-03-19T08:23:06.725Z,9.76
2023-03-19T08:24:06.726Z,9.79
2023-03-19T08:25:06.708Z,9.74
2023-03-19T08:26:06.720Z,9.77
2023-03-19T08:27:06.677Z,9.79
2023-03-19T08:28:06.664Z,9.76
2023-03-19T08:29:06.646Z,9.73
2023-03-19T08:30:06.661Z,9.72
2023-03-19T08:31:06.650Z,9.65
2023-03-19T08:32:06.625Z,9.62
2023-03-19T08:33:06.725Z,9.56
2023-03-19T08:34:06.574Z,9.56
2023-03-19T08:35:06.571Z,9.54
2023-03-19T08:36:06.592Z,9.56
2023-03-19T08:37:06.545Z,9.58
2023-03-19T08:38:06.524Z,9.58
2023-03-19T08:39:06.521Z,9.51
2023-03-19T08:40:06.533Z,9.51
2023-03-19T08:41:06.494Z,9.50
2023-03-19T08:42:06.539Z,9.48
2023-03-19T08:43:06.482Z,9.50
2023-03-19T08:44:06.448Z,9.50
2023-03-19T08:45:06.450Z,9.50
2023-03-19T08:46:06.454Z,9.48
2023-03-19T08:47:06.409Z,9.47
2023-03-19T08:48:06.479Z,9.50
2023-03-19T08:49:06.413Z,9.54
2023-03-19T08:50:06.369Z,9.55
2023-03-19T08:51:06.356Z,9.55
2023-03-19T08:52:06.361Z,9.58
2023-03-19T08:53:06.334Z,9.61
2023-03-19T08:54:06.338Z,9.62
2023-03-19T08:55:06.317Z,9.68
2023-03-19T08:56:06.316Z,9.74
2023-03-19T08:57:06.287Z,9.86
2023-03-19T08:58:06.299Z,9.98
2023-03-19T08:59:06.256Z,10.13
2023-03-19T09:00:06.266Z,10.28
2023-03-19T09:01:06.252Z,10.53
2023-03-19T09:02:06.326Z,10.69
2023-03-19T09:03:06.211Z,10.92
2023-03-19T09:04:06.195Z,11.22
2023-03-19T09:05:06.188Z,11.69
2023-03-19T09:06:06.167Z,12.12
2023-03-19T09:07:06.231Z,12.50
2023-03-19T09:08:06.142Z,12.73
2023-03-19T09:09:06.129Z,12.86
2023-03-19T09:10:06.129Z,13.20
2023-03-19T09:11:06.178Z,13.35
2023-03-19T09:12:08.495Z,13.18
2023-03-19T09:14:40.846Z,12.73
2023-03-19T09:15:40.812Z,12.94
2023-03-19T09:16:40.776Z,13.12
2023-03-19T09:17:40.755Z,13.30
2023-03-19T09:18:40.759Z,13.38
2023-03-19T09:19:40.744Z,13.12
2023-03-19T09:20:40.724Z,12.75
2023-03-19T09:21:40.708Z,12.93
2023-03-19T09:22:40.729Z,13.15
2023-03-19T09:23:40.687Z,13.22
2023-03-19T09:24:40.874Z,13.22
2023-03-19T09:25:40.658Z,13.35
2023-03-19T09:26:40.648Z,13.50
2023-03-19T09:27:40.635Z,13.44
2023-03-19T09:28:40.616Z,13.39
2023-03-19T09:29:40.612Z,13.33
2023-03-19T09:30:40.618Z,13.05
2023-03-19T09:31:40.623Z,12.82
2023-03-19T09:32:40.646Z,12.83
2023-03-19T09:33:40.558Z,12.83
2023-03-19T09:34:40.550Z,12.90
2023-03-19T09:35:40.589Z,12.83
2023-03-19T09:36:40.558Z,12.72
2023-03-19T09:37:40.511Z,12.65
2023-03-19T09:38:40.492Z,12.62
2023-03-19T09:39:40.488Z,12.61
2023-03-19T09:40:40.470Z,12.73
2023-03-19T09:41:40.460Z,12.78
2023-03-19T09:42:40.434Z,12.68
2023-03-19T09:43:40.424Z,12.65
2023-03-19T09:44:40.424Z,12.58
2023-03-19T09:45:40.418Z,12.47
2023-03-19T09:46:40.493Z,12.36
2023-03-19T09:47:40.385Z,12.37
2023-03-19T09:48:40.370Z,12.45
2023-03-19T09:49:40.351Z,12.53
2023-03-19T09:50:40.344Z,12.64
2023-03-19T09:51:40.338Z,12.65
2023-03-19T09:52:40.328Z,12.64
2023-03-19T09:53:40.297Z,12.79
2023-03-19T09:54:40.303Z,12.94
2023-03-19T09:55:40.272Z,12.93
2023-03-19T09:56:40.258Z,13.05
2023-03-19T09:57:40.247Z,13.30
2023-03-19T09:58:40.253Z,13.35
2023-03-19T09:59:40.244Z,13.52
2023-03-19T10:00:40.229Z,13.75
2023-03-19T10:01:40.252Z,13.78
2023-03-19T10:02:40.216Z,13.60
2023-03-19T10:03:40.180Z,13.42
2023-03-19T10:04:40.170Z,13.28
2023-03-19T10:05:40.144Z,13.03
2023-03-19T10:06:40.137Z,12.94
2023-03-19T10:07:40.128Z,12.70
2023-03-19T10:08:40.114Z,12.58
2023-03-19T10:09:40.106Z,12.58
2023-03-19T10:10:40.083Z,12.58
2023-03-19T10:11:40.066Z,12.72
2023-03-19T10:12:40.064Z,12.94
2023-03-19T10:13:40.067Z,13.05
2023-03-19T10:14:40.037Z,13.18
2023-03-19T10:15:40.026Z,13.25
2023-03-19T10:16:40.171Z,13.23
2023-03-19T10:17:39.998Z,13.30
2023-03-19T10:18:40.017Z,13.38
2023-03-19T10:19:40.934Z,13.37
2023-03-19T10:20:39.991Z,13.23
2023-03-19T10:21:39.953Z,13.25
2023-03-19T10:22:39.941Z,13.38
2023-03-19T10:23:39.912Z,13.46
2023-03-19T10:24:39.943Z,13.42
2023-03-19T10:25:41.562Z,13.30
2023-03-19T10:26:39.885Z,13.35
2023-03-19T10:27:39.864Z,13.22
2023-03-19T10:28:39.868Z,13.04
2023-03-19T10:29:39.856Z,12.94
2023-03-19T10:30:39.834Z,12.90
2023-03-19T10:31:39.890Z,12.83
2023-03-19T10:32:39.837Z,12.91
2023-03-19T10:33:39.789Z,13.04
2023-03-19T10:34:39.817Z,13.27
2023-03-19T10:35:39.805Z,13.44
2023-03-19T10:36:39.755Z,13.65
2023-03-19T10:37:39.756Z,13.89
2023-03-19T10:38:39.729Z,14.07
2023-03-19T10:39:39.724Z,14.12
2023-03-19T10:40:39.705Z,14.18
2023-03-19T10:41:39.691Z,14.11
2023-03-19T10:42:39.675Z,14.00
2023-03-19T10:43:39.675Z,13.90
2023-03-19T10:44:39.653Z,13.90
2023-03-19T10:45:39.955Z,13.87
2023-03-19T10:46:39.630Z,13.83
2023-03-19T10:47:39.632Z,13.74
2023-03-19T10:48:39.603Z,13.65
2023-03-19T10:49:39.592Z,13.44
2023-03-19T10:50:39.594Z,13.37
2023-03-19T10:51:39.574Z,13.37
2023-03-19T10:52:39.550Z,13.41
2023-03-19T10:53:39.538Z,13.28
2023-03-19T10:54:39.521Z,13.12
2023-03-19T10:55:39.515Z,13.12
2023-03-19T10:56:39.502Z,13.16
2023-03-19T10:57:39.499Z,13.18
2023-03-19T10:58:39.474Z,13.20
2023-03-19T10:59:39.499Z,13.19
2023-03-19T11:00:39.459Z,13.28
2023-03-19T11:01:39.438Z,13.20
2023-03-19T11:02:39.421Z,13.30
2023-03-19T11:03:39.550Z,13.31
2023-03-19T11:04:39.410Z,13.27
2023-03-19T11:05:39.376Z,13.30
2023-03-19T11:06:39.406Z,13.28
2023-03-19T11:07:39.357Z,13.31
2023-03-19T11:08:39.338Z,13.41
2023-03-19T11:09:39.331Z,13.47
2023-03-19T11:10:39.326Z,13.50
2023-03-19T11:11:39.302Z,13.59
2023-03-19T11:12:39.289Z,13.65
2023-03-19T11:13:39.271Z,13.67
2023-03-19T11:14:39.261Z,13.68
2023-03-19T11:15:39.261Z,13.63
2023-03-19T11:16:39.327Z,13.60
2023-03-19T11:17:39.234Z,13.68
2023-03-19T11:18:39.214Z,13.78
2023-03-19T11:19:39.205Z,13.97
2023-03-19T11:20:39.183Z,14.08
2023-03-19T11:21:39.185Z,14.12
2023-03-19T11:22:39.178Z,14.26
2023-03-19T11:23:39.142Z,14.44
2023-03-19T11:24:39.141Z,14.50
2023-03-19T11:25:39.123Z,14.65
2023-03-19T11:26:39.109Z,14.73
2023-03-19T11:27:39.100Z,14.73
2023-03-19T11:28:39.082Z,14.85
2023-03-19T11:29:39.080Z,15.00
2023-03-19T11:30:39.067Z,15.09
2023-03-19T11:31:39.066Z,15.17
2023-03-19T11:32:39.233Z,15.25
2023-03-19T11:33:39.047Z,15.35
2023-03-19T11:34:39.016Z,15.29
2023-03-19T11:35:39.121Z,15.36
2023-03-19T11:36:38.982Z,15.42
2023-03-19T11:37:38.973Z,15.37
2023-03-19T11:38:38.985Z,15.37
2023-03-19T11:39:38.956Z,15.37
2023-03-19T11:40:38.948Z,15.31
2023-03-19T11:41:38.918Z,15.14
2023-03-19T11:42:38.904Z,15.03
2023-03-19T11:43:38.904Z,14.94
2023-03-19T11:44:38.880Z,15.02
2023-03-19T11:45:41.614Z,15.03
2023-03-19T11:46:38.858Z,14.92
2023-03-19T11:47:38.851Z,14.89
2023-03-19T11:48:38.845Z,14.91
2023-03-19T11:49:38.821Z,14.77
2023-03-19T11:50:38.820Z,14.63
2023-03-19T11:51:38.797Z,14.55
2023-03-19T11:52:38.794Z,14.45
2023-03-19T11:53:38.808Z,14.36
2023-03-19T11:54:38.925Z,14.37
2023-03-19T11:55:38.755Z,14.35
2023-03-19T11:56:38.736Z,14.23
2023-03-19T11:57:38.712Z,14.00
2023-03-19T11:58:38.712Z,14.00
2023-03-19T11:59:38.696Z,13.87
2023-03-19T12:00:38.690Z,13.95
2023-03-19T12:01:39.368Z,14.00
2023-03-19T12:02:38.712Z,13.99
2023-03-19T12:03:38.680Z,14.03
2023-03-19T12:04:38.632Z,13.99
2023-03-19T12:05:38.610Z,14.03
2023-03-19T12:06:38.614Z,14.03
2023-03-19T12:07:38.602Z,14.11
2023-03-19T12:08:38.616Z,14.17
2023-03-19T12:09:38.575Z,14.15
2023-03-19T12:10:38.569Z,14.17
2023-03-19T12:11:38.542Z,14.20
2023-03-19T12:12:38.541Z,14.11
2023-03-19T12:13:38.525Z,14.10
2023-03-19T12:14:38.500Z,14.15
2023-03-19T12:15:38.627Z,14.15
2023-03-19T12:16:45.835Z,14.17
2023-03-19T12:17:39.510Z,14.10
2023-03-19T12:18:38.460Z,14.18
2023-03-19T12:19:38.443Z,14.18
2023-03-19T12:20:38.431Z,14.20
2023-03-19T12:21:38.417Z,14.17
2023-03-19T12:22:38.407Z,13.95
2023-03-19T12:23:38.391Z,13.86
2023-03-19T12:24:38.394Z,13.83
2023-03-19T12:25:38.354Z,13.78
2023-03-19T12:26:38.378Z,13.74
2023-03-19T12:27:38.335Z,13.71
2023-03-19T12:28:38.328Z,13.65
2023-03-19T12:29:38.304Z,13.70
2023-03-19T12:30:38.300Z,13.70
2023-03-19T12:31:38.291Z,13.71
2023-03-19T12:32:38.345Z,13.74
2023-03-19T12:33:38.263Z,13.81
2023-03-19T12:34:38.302Z,13.90
2023-03-19T12:35:38.686Z,13.92
2023-03-19T12:36:38.223Z,13.92
2023-03-19T12:37:38.202Z,13.93
2023-03-19T12:38:38.197Z,13.87
2023-03-19T12:39:38.184Z,13.83
2023-03-19T12:40:38.191Z,13.77
2023-03-19T12:41:38.149Z,13.77
2023-03-19T12:42:38.282Z,13.68
2023-03-19T12:43:38.211Z,13.71
2023-03-19T12:44:38.127Z,13.71
2023-03-19T12:45:38.112Z,13.74
2023-03-19T12:46:38.203Z,13.67
2023-03-19T12:47:38.088Z,13.68
2023-03-19T12:48:38.069Z,13.65
2023-03-19T12:49:38.064Z,13.65
2023-03-19T12:50:38.038Z,13.71
2023-03-19T12:51:38.036Z,13.70
2023-03-19T12:52:38.012Z,13.72
2023-03-19T12:53:38.009Z,13.77
2023-03-19T12:54:38.004Z,13.85
2023-03-19T12:55:37.978Z,13.89
2023-03-19T12:56:37.966Z,13.96
2023-03-19T12:57:37.960Z,13.96
2023-03-19T12:58:37.981Z,13.97
2023-03-19T12:59:37.922Z,13.95
2023-03-19T13:00:37.908Z,13.92
2023-03-19T13:01:38.111Z,13.90
2023-03-19T13:02:37.934Z,13.87
2023-03-19T13:03:37.867Z,13.92
2023-03-19T13:04:39.879Z,13.90
2023-03-19T13:05:37.853Z,13.86
2023-03-19T13:06:37.832Z,13.83
2023-03-19T13:07:37.820Z,13.81
2023-03-19T13:08:37.821Z,13.85
2023-03-19T13:09:37.813Z,13.87
2023-03-19T13:10:37.797Z,13.74
2023-03-19T13:11:37.779Z,13.70